createdAt,value
2022-08-03T00:00:09.744Z,22.12
2022-08-03T00:05:08.402Z,22.06
2022-08-03T00:09:58.092Z,21.98
2022-08-03T00:14:47.691Z,21.99
2022-08-03T00:19:37.931Z,21.92
2022-08-03T00:24:31.212Z,21.92
2022-08-03T00:29:20.931Z,21.86
2022-08-03T00:34:10.614Z,21.75
2022-08-03T00:39:02.166Z,21.67
2022-08-03T00:43:54.475Z,21.70
2022-08-03T00:48:44.166Z,21.65
2022-08-03T00:53:34.211Z,21.59
2022-08-03T00:58:24.278Z,21.58
2022-08-03T01:03:16.543Z,21.59
2022-08-03T01:08:15.282Z,21.60
2022-08-03T01:13:59.882Z,21.58
2022-08-03T01:18:39.076Z,21.58
2022-08-03T01:23:50.338Z,21.53
2022-08-03T01:28:57.291Z,21.47
2022-08-03T01:33:55.592Z,21.46
2022-08-03T01:38:47.608Z,21.44
2022-08-03T01:44:27.946Z,21.34
2022-08-03T01:48:53.637Z,21.34
2022-08-03T01:53:45.538Z,21.27
2022-08-03T01:58:37.824Z,21.25
2022-08-03T02:03:27.927Z,21.17
2022-08-03T02:08:21.921Z,21.16
2022-08-03T02:13:13.300Z,21.10
2022-08-03T02:18:04.673Z,21.08
2022-08-03T02:22:54.467Z,20.98
2022-08-03T02:27:59.431Z,20.98
2022-08-03T02:32:59.864Z,20.91
2022-08-03T02:37:53.141Z,20.90
2022-08-03T02:42:48.624Z,20.85
2022-08-03T02:47:54.361Z,20.78
2022-08-03T02:52:45.532Z,20.75
2022-08-03T02:57:37.882Z,20.72
2022-08-03T03:02:31.925Z,20.60
2022-08-03T03:07:22.479Z,20.59
2022-08-03T03:12:15.990Z,20.56
2022-08-03T03:17:06.542Z,20.55
2022-08-03T03:21:59.230Z,20.47
2022-08-03T03:26:49.337Z,20.49
2022-08-03T03:31:39.497Z,20.43
2022-08-03T03:36:29.227Z,20.41
2022-08-03T03:41:21.707Z,20.38
2022-08-03T03:46:14.902Z,20.35
2022-08-03T03:51:05.343Z,20.35
2022-08-03T03:56:01.201Z,20.34
2022-08-03T04:00:55.013Z,20.26
2022-08-03T04:05:57.407Z,20.22
2022-08-03T04:11:03.250Z,20.21
2022-08-03T04:15:57.624Z,20.17
2022-08-03T04:20:50.433Z,20.14
2022-08-03T04:25:42.773Z,20.18
2022-08-03T04:30:36.305Z,20.09
2022-08-03T04:35:58.658Z,20.12
2022-08-03T04:40:45.573Z,20.03
2022-08-03T04:45:36.863Z,19.98
2022-08-03T04:50:30.111Z,20.07
2022-08-03T04:55:30.259Z,20.06
2022-08-03T05:00:21.007Z,20.06
2022-08-03T05:05:12.060Z,20.03
2022-08-03T05:10:05.057Z,20.02
2022-08-03T05:15:05.438Z,20.06
2022-08-03T05:20:00.110Z,20.08
2022-08-03T05:25:00.317Z,20.11
2022-08-03T05:29:55.602Z,20.12
2022-08-03T05:34:46.731Z,20.14
2022-08-03T05:39:37.120Z,20.14
2022-08-03T05:44:27.182Z,20.17
2022-08-03T05:49:20.482Z,20.25
2022-08-03T05:54:16.315Z,20.25
2022-08-03T05:59:35.794Z,20.31
2022-08-03T06:04:21.877Z,20.31
2022-08-03T06:09:11.837Z,20.32
2022-08-03T06:14:01.481Z,20.30
2022-08-03T06:18:51.172Z,20.32
2022-08-03T06:23:53.390Z,20.36
2022-08-03T06:28:52.326Z,20.36
2022-08-03T06:34:30.097Z,20.45
2022-08-03T06:38:57.685Z,20.46
2022-08-03T06:44:03.364Z,20.55
2022-08-03T06:48:56.858Z,20.58
2022-08-03T06:53:49.725Z,20.66
2022-08-03T06:58:44.446Z,20.68
2022-08-03T07:03:35.456Z,20.75
2022-08-03T07:08:34.316Z,20.68
2022-08-03T07:13:24.348Z,20.77
2022-08-03T07:18:16.722Z,20.82
2022-08-03T07:23:06.500Z,20.86
2022-08-03T07:27:56.282Z,20.95
2022-08-03T07:32:49.826Z,21.07
2022-08-03T07:37:54.124Z,21.14
2022-08-03T07:42:46.792Z,21.24
2022-08-03T07:47:38.989Z,21.34
2022-08-03T07:52:41.444Z,21.39
2022-08-03T07:57:33.983Z,21.46
2022-08-03T08:02:23.641Z,21.59
2022-08-03T08:07:13.306Z,21.88
2022-08-03T08:12:15.215Z,22.10
2022-08-03T08:17:08.253Z,22.36
2022-08-03T08:22:02.384Z,22.53
2022-08-03T08:26:52.630Z,22.79
2022-08-03T08:31:42.346Z,22.95
2022-08-03T08:36:36.391Z,23.18
2022-08-03T08:41:32.159Z,23.38
2022-08-03T08:46:24.149Z,23.60
2022-08-03T08:51:15.505Z,23.82
2022-08-03T08:56:12.984Z,24.08
2022-08-03T09:01:03.223Z,24.31
2022-08-03T09:05:56.048Z,24.56
2022-08-03T09:10:46.063Z,24.84
2022-08-03T09:15:39.272Z,25.13
2022-08-03T09:20:30.998Z,25.48
2022-08-03T09:25:25.060Z,25.82
2022-08-03T09:30:34.414Z,26.07
2022-08-03T09:40:41.952Z,26.71
2022-08-03T09:45:32.728Z,27.10
2022-08-03T09:50:22.537Z,27.55
2022-08-03T09:56:30.481Z,27.86
2022-08-03T10:00:30.316Z,28.21
2022-08-03T10:05:35.278Z,28.57
2022-08-03T10:10:32.110Z,28.94
2022-08-03T10:16:22.946Z,28.86
2022-08-03T10:20:44.122Z,28.94
2022-08-03T10:25:41.430Z,28.99
2022-08-03T10:30:34.526Z,29.12
2022-08-03T10:35:26.777Z,29.43
2022-08-03T10:40:39.649Z,29.59
2022-08-03T10:45:41.839Z,29.64
2022-08-03T10:50:32.019Z,29.66
2022-08-03T10:55:49.616Z,29.69
2022-08-03T11:00:56.594Z,29.56
2022-08-03T11:05:49.874Z,29.52
2022-08-03T11:10:41.567Z,29.59
2022-08-03T11:15:36.465Z,29.50
2022-08-03T11:20:51.053Z,29.60
2022-08-03T11:26:10.935Z,29.55
2022-08-03T11:31:51.934Z,29.65
2022-08-03T11:37:11.900Z,29.73
2022-08-03T11:42:39.563Z,29.81
2022-08-03T11:47:32.820Z,29.82
2022-08-03T11:52:26.959Z,29.82
2022-08-03T11:59:09.363Z,29.80
2022-08-03T12:02:57.611Z,29.76
2022-08-03T12:08:03.642Z,29.77
2022-08-03T12:12:59.178Z,29.82
2022-08-03T12:17:55.979Z,29.84
2022-08-03T12:22:47.578Z,29.94
2022-08-03T12:27:37.547Z,29.95
2022-08-03T12:32:28.703Z,30.05
2022-08-03T12:37:23.687Z,30.15
2022-08-03T12:42:16.041Z,30.22
2022-08-03T12:47:10.318Z,30.22
2022-08-03T12:52:07.472Z,30.36
2022-08-03T12:57:04.934Z,30.42
2022-08-03T13:01:55.048Z,30.42
2022-08-03T13:06:48.191Z,30.52
2022-08-03T13:12:10.849Z,30.48
2022-08-03T13:17:00.625Z,30.55
2022-08-03T13:22:01.851Z,30.67
2022-08-03T13:26:54.267Z,30.79
2022-08-03T13:31:50.483Z,30.81
2022-08-03T13:37:07.528Z,30.85
2022-08-03T13:41:51.118Z,30.94
2022-08-03T13:46:40.896Z,30.97
2022-08-03T13:51:33.352Z,30.96
2022-08-03T13:56:23.173Z,31.04
2022-08-03T14:01:13.182Z,31.08
2022-08-03T14:06:03.035Z,31.16
2022-08-03T14:10:55.734Z,31.16
2022-08-03T14:15:49.749Z,31.25
2022-08-03T14:20:48.973Z,31.33
2022-08-03T14:26:05.612Z,31.39
2022-08-03T14:30:59.045Z,31.56
2022-08-03T14:35:49.154Z,31.55
2022-08-03T14:40:39.033Z,31.63
2022-08-03T14:45:29.202Z,31.76
2022-08-03T14:50:33.122Z,31.76
2022-08-03T14:55:39.012Z,31.72
2022-08-03T15:00:46.641Z,31.71
2022-08-03T15:05:43.390Z,31.76
2022-08-03T15:10:44.086Z,31.83
2022-08-03T15:15:34.959Z,31.88
2022-08-03T15:20:36.747Z,31.88
2022-08-03T15:26:31.915Z,31.86
2022-08-03T15:30:46.463Z,31.80
2022-08-03T15:35:36.314Z,31.88
2022-08-03T15:40:28.466Z,31.84
2022-08-03T15:45:20.771Z,31.96
2022-08-03T15:50:12.037Z,31.99
2022-08-03T15:55:01.978Z,31.98
2022-08-03T15:59:51.957Z,31.95
2022-08-03T16:04:44.322Z,31.84
2022-08-03T16:09:42.785Z,31.87
2022-08-03T16:14:43.387Z,31.71
2022-08-03T16:19:40.678Z,31.60
2022-08-03T16:24:34.187Z,31.53
2022-08-03T16:29:29.967Z,31.47
2022-08-03T16:34:23.073Z,31.56
2022-08-03T16:39:13.296Z,31.53
2022-08-03T16:44:09.857Z,31.57
2022-08-03T16:49:00.039Z,31.45
2022-08-03T16:54:07.356Z,31.43
2022-08-03T16:58:58.007Z,31.37
2022-08-03T17:04:02.534Z,31.35
2022-08-03T17:08:55.454Z,31.27
2022-08-03T17:13:47.321Z,31.33
2022-08-03T17:18:42.263Z,31.38
2022-08-03T17:23:52.050Z,31.30
2022-08-03T17:28:50.298Z,31.32
2022-08-03T17:33:42.415Z,31.32
2022-08-03T17:38:47.721Z,31.29
2022-08-03T17:44:15.630Z,31.28
2022-08-03T17:48:57.429Z,31.27
2022-08-03T17:54:00.631Z,31.28
2022-08-03T17:59:00.774Z,31.19
2022-08-03T18:04:10.699Z,31.05
2022-08-03T18:10:04.898Z,30.90
2022-08-03T18:14:23.794Z,30.79
2022-08-03T18:19:15.406Z,30.65
2022-08-03T18:24:13.186Z,30.55
2022-08-03T18:29:05.558Z,30.41
2022-08-03T18:34:19.022Z,30.33
2022-08-03T18:39:13.998Z,30.23
2022-08-03T18:44:09.360Z,30.05
2022-08-03T18:49:30.725Z,29.94
2022-08-03T18:54:45.536Z,29.82
2022-08-03T18:59:43.391Z,29.65
2022-08-03T19:04:36.978Z,29.59
2022-08-03T19:09:42.924Z,29.57
2022-08-03T19:14:37.383Z,29.53
2022-08-03T19:19:44.208Z,29.51
2022-08-03T19:24:45.737Z,29.43
2022-08-03T19:29:59.512Z,29.30
2022-08-03T19:34:55.386Z,29.10
2022-08-03T19:39:59.178Z,28.94
2022-08-03T19:45:02.069Z,28.73
2022-08-03T19:50:13.776Z,28.56
2022-08-03T19:55:19.077Z,28.37
2022-08-03T20:00:30.307Z,28.24
2022-08-03T20:05:26.840Z,28.13
2022-08-03T20:10:20.447Z,28.00
2022-08-03T20:15:13.899Z,27.87
2022-08-03T20:20:09.600Z,27.77
2022-08-03T20:25:00.672Z,27.67
2022-08-03T20:30:06.893Z,27.60
2022-08-03T20:34:58.622Z,27.51
2022-08-03T20:39:49.771Z,27.45
2022-08-03T20:44:39.698Z,27.39
2022-08-03T20:49:45.714Z,27.29
2022-08-03T20:54:38.783Z,27.20
2022-08-03T20:59:47.013Z,27.14
2022-08-03T21:04:47.460Z,27.06
2022-08-03T21:09:47.833Z,27.05
2022-08-03T21:14:47.953Z,27.13
2022-08-03T21:19:52.064Z,27.13
2022-08-03T21:24:44.812Z,27.13
2022-08-03T21:29:35.414Z,27.02
2022-08-03T21:34:47.675Z,27.06
2022-08-03T21:39:37.764Z,27.03
2022-08-03T21:44:41.051Z,27.00
2022-08-03T21:50:04.978Z,27.02
2022-08-03T21:54:48.264Z,26.96
2022-08-03T21:59:40.429Z,26.98
2022-08-03T22:04:55.092Z,26.95
2022-08-03T22:09:40.734Z,26.91
2022-08-03T22:14:43.861Z,26.87
2022-08-03T22:19:33.522Z,26.77
2022-08-03T22:24:28.248Z,26.79
2022-08-03T22:29:18.061Z,26.73
2022-08-03T22:34:10.278Z,26.65
2022-08-03T22:39:00.783Z,26.53
2022-08-03T22:43:50.670Z,26.41
2022-08-03T22:48:41.919Z,26.27
2022-08-03T22:53:34.663Z,26.28
2022-08-03T22:58:24.282Z,26.15
2022-08-03T23:03:14.819Z,26.12
2022-08-03T23:08:06.868Z,26.15
2022-08-03T23:13:01.489Z,26.16
2022-08-03T23:17:57.998Z,25.99
2022-08-03T23:22:49.982Z,25.86
2022-08-03T23:27:43.684Z,25.76
2022-08-03T23:32:37.942Z,25.73
2022-08-03T23:37:28.587Z,25.57
2022-08-03T23:42:20.132Z,25.53
2022-08-03T23:47:09.792Z,25.45
2022-08-03T23:52:10.488Z,25.35
2022-08-03T23:57:11.323Z,25.29
